الصفحة الرئيسية
METAR-TAF:

METAR-TAF

مطار :

مطار طانطان الشاطئ الأبيض

طانطان, المغرب

دائرة عرض: 28-26-54N, خط طول: 11-09-41W, ارتفاع: 199 متر

مراقبة الطقس الحالي

تاريخ ووقت الإصدار 8ساعات و 18 دقيقة قبل الساعة 18:00UTC
ريح 10 عقدة من الغرب
درجة الحرارة 15°درجة مئوية
الرطوبة 67%
ضغط 1016 hPa
الرؤية 10 كم أو أكثر
غيوم متفرقة على ارتفاع 1600 قدم

METAR: GMAT 221800Z 28010KT 9999 SCT016 15/09 Q1016 NOSIG

زمن: 03:18 (02:18 UTC)


TAF: مفقودة

أرصاد الطقس والتوقعات من أكثر من 4000 مطار (تقارير الطقس للمطار METAR والتنبؤ بالطقس بالمطارTAF).

المحطات المتاحة هي النقط الصفراء والحمراء على الخريطة.

حرك المؤشر فوق النقطة لمعرفة اسم المحطة.

ثم انقر لمعرفة أرصاد وتوقعات الطقس.

لتغيير الخارطة: اضغط على الأزرار الخضراء مع رمز الصليب الأسود للتكبير. على الزر الأخضر مع شرطة للتصغير، أو على الأسهم الخضراء للخرائط المجاورة.


METAR-TAF: